sensor_id;sensor_type;location;lat;lon;timestamp;pressure;altitude;pressure_sealevel;temperature;humidity
54172;BME280;40076;52.354;4.970;2023-03-24T00:00:38;99674.22;;;12.32;100.00
54172;BME280;40076;52.354;4.970;2023-03-24T00:03:04;99670.38;;;12.33;100.00
54172;BME280;40076;52.354;4.970;2023-03-24T00:05:29;99652.19;;;12.34;100.00
54172;BME280;40076;52.354;4.970;2023-03-24T00:07:55;99663.81;;;12.34;100.00
54172;BME280;40076;52.354;4.970;2023-03-24T00:10:22;99656.47;;;12.35;100.00
54172;BME280;40076;52.354;4.970;2023-03-24T00:12:47;99654.91;;;12.34;100.00
54172;BME280;40076;52.354;4.970;2023-03-24T00:15:16;99647.19;;;12.36;100.00
54172;BME280;40076;52.354;4.970;2023-03-24T00:17:43;99651.47;;;12.37;100.00
54172;BME280;40076;52.354;4.970;2023-03-24T00:20:12;99644.06;;;12.34;100.00
54172;BME280;40076;52.354;4.970;2023-03-24T00:22:40;99650.28;;;12.34;100.00
54172;BME280;40076;52.354;4.970;2023-03-24T00:25:07;99643.63;;;12.32;100.00
54172;BME280;40076;52.354;4.970;2023-03-24T00:27:33;99642.84;;;12.31;100.00
54172;BME280;40076;52.354;4.970;2023-03-24T00:30:04;99628.97;;;12.33;100.00
54172;BME280;40076;52.354;4.970;2023-03-24T00:32:31;99624.69;;;12.32;100.00
54172;BME280;40076;52.354;4.970;2023-03-24T00:34:56;99632.44;;;12.33;100.00
54172;BME280;40076;52.354;4.970;2023-03-24T00:37:22;99617.34;;;12.32;100.00
54172;BME280;40076;52.354;4.970;2023-03-24T00:39:48;99623.09;;;12.31;100.00
54172;BME280;40076;52.354;4.970;2023-03-24T00:42:13;99628.59;;;12.34;100.00
54172;BME280;40076;52.354;4.970;2023-03-24T00:44:39;99627.38;;;12.32;100.00
54172;BME280;40076;52.354;4.970;2023-03-24T00:47:04;99614.28;;;12.34;100.00
54172;BME280;40076;52.354;4.970;2023-03-24T00:49:30;99615.84;;;12.35;100.00
54172;BME280;40076;52.354;4.970;2023-03-24T00:52:15;99608.84;;;12.34;100.00
54172;BME280;40076;52.354;4.970;2023-03-24T00:54:44;99594.97;;;12.35;100.00
54172;BME280;40076;52.354;4.970;2023-03-24T00:57:10;99594.19;;;12.35;100.00
54172;BME280;40076;52.354;4.970;2023-03-24T00:59:37;99585.66;;;12.36;100.00
54172;BME280;40076;52.354;4.970;2023-03-24T01:02:07;99581.09;;;12.41;100.00
54172;BME280;40076;52.354;4.970;2023-03-24T01:04:37;99574.94;;;12.44;100.00
54172;BME280;40076;52.354;4.970;2023-03-24T01:07:03;99569.59;;;12.47;100.00
54172;BME280;40076;52.354;4.970;2023-03-24T01:09:29;99572.78;;;12.53;100.00
54172;BME280;40076;52.354;4.970;2023-03-24T01:11:55;99577.50;;;12.56;100.00
54172;BME280;40076;52.354;4.970;2023-03-24T01:14:23;99568.22;;;12.57;100.00
54172;BME280;40076;52.354;4.970;2023-03-24T01:16:51;99569.00;;;12.57;100.00
54172;BME280;40076;52.354;4.970;2023-03-24T01:19:17;99562.06;;;12.60;100.00
54172;BME280;40076;52.354;4.970;2023-03-24T01:21:42;99555.06;;;12.59;100.00
54172;BME280;40076;52.354;4.970;2023-03-24T01:24:07;99553.94;;;12.60;100.00
54172;BME280;40076;52.354;4.970;2023-03-24T01:26:33;99565.16;;;12.58;100.00
54172;BME280;40076;52.354;4.970;2023-03-24T01:28:58;99546.59;;;12.60;100.00
54172;BME280;40076;52.354;4.970;2023-03-24T01:31:24;99549.66;;;12.59;100.00
54172;BME280;40076;52.354;4.970;2023-03-24T01:33:49;99553.53;;;12.58;100.00
54172;BME280;40076;52.354;4.970;2023-03-24T01:36:14;99553.53;;;12.58;100.00
54172;BME280;40076;52.354;4.970;2023-03-24T01:38:40;99529.94;;;12.58;100.00
54172;BME280;40076;52.354;4.970;2023-03-24T01:41:06;99535.72;;;12.57;100.00
54172;BME280;40076;52.354;4.970;2023-03-24T01:43:33;99533.00;;;12.57;100.00
54172;BME280;40076;52.354;4.970;2023-03-24T01:46:12;99540.34;;;12.56;100.00
54172;BME280;40076;52.354;4.970;2023-03-24T01:48:59;99528.28;;;12.54;100.00
54172;BME280;40076;52.354;4.970;2023-03-24T01:51:41;99528.66;;;12.52;100.00
54172;BME280;40076;52.354;4.970;2023-03-24T01:54:16;99534.84;;;12.53;100.00
54172;BME280;40076;52.354;4.970;2023-03-24T01:56:47;99554.19;;;12.51;100.00
54172;BME280;40076;52.354;4.970;2023-03-24T01:59:18;99548.34;;;12.49;100.00
54172;BME280;40076;52.354;4.970;2023-03-24T02:01:45;99562.72;;;12.53;100.00
54172;BME280;40076;52.354;4.970;2023-03-24T02:04:11;99560.44;;;12.55;100.00
54172;BME280;40076;52.354;4.970;2023-03-24T02:06:38;99560.81;;;12.54;100.00
54172;BME280;40076;52.354;4.970;2023-03-24T02:09:06;99593.31;;;12.54;100.00
54172;BME280;40076;52.354;4.970;2023-03-24T02:11:33;99599.16;;;12.56;100.00
54172;BME280;40076;52.354;4.970;2023-03-24T02:13:59;99617.41;;;12.59;100.00
54172;BME280;40076;52.354;4.970;2023-03-24T02:16:44;99605.81;;;12.58;100.00
54172;BME280;40076;52.354;4.970;2023-03-24T02:30:35;99640.34;;;12.42;100.00
54172;BME280;40076;52.354;4.970;2023-03-24T02:41:54;99653.13;;;12.22;100.00
54172;BME280;40076;52.354;4.970;2023-03-24T02:44:36;99673.59;;;12.20;100.00
54172;BME280;40076;52.354;4.970;2023-03-24T02:47:09;99665.38;;;12.16;100.00
54172;BME280;40076;52.354;4.970;2023-03-24T02:49:46;99679.22;;;12.11;100.00
54172;BME280;40076;52.354;4.970;2023-03-24T02:52:21;99679.88;;;12.05;100.00
54172;BME280;40076;52.354;4.970;2023-03-24T02:55:01;99684.84;;;12.03;100.00
54172;BME280;40076;52.354;4.970;2023-03-24T02:57:33;99679.34;;;11.99;100.00
54172;BME280;40076;52.354;4.970;2023-03-24T03:00:05;99687.06;;;11.97;100.00
54172;BME280;40076;52.354;4.970;2023-03-24T03:02:36;99695.53;;;11.95;100.00
54172;BME280;40076;52.354;4.970;2023-03-24T03:05:10;99685.06;;;11.94;100.00
54172;BME280;40076;52.354;4.970;2023-03-24T03:07:38;99691.25;;;11.94;100.00
54172;BME280;40076;52.354;4.970;2023-03-24T03:10:15;99697.75;;;11.90;100.00
54172;BME280;40076;52.354;4.970;2023-03-24T03:12:43;99710.06;;;11.87;100.00
54172;BME280;40076;52.354;4.970;2023-03-24T03:15:34;99697.50;;;11.79;100.00
54172;BME280;40076;52.354;4.970;2023-03-24T03:18:08;99712.97;;;11.79;100.00
54172;BME280;40076;52.354;4.970;2023-03-24T03:20:39;99724.47;;;11.76;100.00
54172;BME280;40076;52.354;4.970;2023-03-24T03:23:10;99730.59;;;11.73;100.00
54172;BME280;40076;52.354;4.970;2023-03-24T03:25:40;99727.78;;;11.69;100.00
54172;BME280;40076;52.354;4.970;2023-03-24T03:28:12;99722.31;;;11.66;100.00
54172;BME280;40076;52.354;4.970;2023-03-24T03:30:46;99733.38;;;11.60;100.00
54172;BME280;40076;52.354;4.970;2023-03-24T03:33:18;99752.25;;;11.57;100.00
54172;BME280;40076;52.354;4.970;2023-03-24T03:35:57;99749.44;;;11.53;100.00
54172;BME280;40076;52.354;4.970;2023-03-24T03:38:43;99732.72;;;11.48;100.00
54172;BME280;40076;52.354;4.970;2023-03-24T03:41:10;99731.13;;;11.47;100.00
54172;BME280;40076;52.354;4.970;2023-03-24T03:43:36;99745.00;;;11.45;100.00
54172;BME280;40076;52.354;4.970;2023-03-24T03:46:02;99741.09;;;11.43;100.00
54172;BME280;40076;52.354;4.970;2023-03-24T03:48:30;99739.88;;;11.40;100.00
54172;BME280;40076;52.354;4.970;2023-03-24T03:50:56;99744.78;;;11.35;100.00
54172;BME280;40076;52.354;4.970;2023-03-24T03:53:27;99740.50;;;11.34;100.00
54172;BME280;40076;52.354;4.970;2023-03-24T03:55:55;99743.53;;;11.32;100.00
54172;BME280;40076;52.354;4.970;2023-03-24T03:58:21;99754.28;;;11.29;100.00
54172;BME280;40076;52.354;4.970;2023-03-24T04:00:47;99754.63;;;11.27;100.00
54172;BME280;40076;52.354;4.970;2023-03-24T04:03:59;99765.00;;;11.25;100.00
54172;BME280;40076;52.354;4.970;2023-03-24T04:08:55;99782.09;;;11.13;100.00
54172;BME280;40076;52.354;4.970;2023-03-24T04:11:38;99785.56;;;11.14;100.00
54172;BME280;40076;52.354;4.970;2023-03-24T04:14:30;99777.38;;;11.10;100.00
54172;BME280;40076;52.354;4.970;2023-03-24T04:22:47;99785.03;;;11.08;100.00
54172;BME280;40076;52.354;4.970;2023-03-24T04:25:29;99787.75;;;11.08;100.00
54172;BME280;40076;52.354;4.970;2023-03-24T04:28:08;99799.69;;;11.07;100.00
54172;BME280;40076;52.354;4.970;2023-03-24T04:30:45;99799.63;;;11.04;100.00
54172;BME280;40076;52.354;4.970;2023-03-24T04:33:37;99811.56;;;11.03;100.00
54172;BME280;40076;52.354;4.970;2023-03-24T04:36:09;99816.16;;;11.02;100.00
54172;BME280;40076;52.354;4.970;2023-03-24T04:38:45;99816.84;;;10.99;100.00
54172;BME280;40076;52.354;4.970;2023-03-24T04:41:13;99812.22;;;11.00;100.00
54172;BME280;40076;52.354;4.970;2023-03-24T04:43:42;99812.22;;;11.00;100.00
54172;BME280;40076;52.354;4.970;2023-03-24T04:46:09;99822.97;;;10.96;100.00
54172;BME280;40076;52.354;4.970;2023-03-24T04:48:34;99821.72;;;10.94;100.00
54172;BME280;40076;52.354;4.970;2023-03-24T04:51:01;99817.56;;;10.96;100.00
54172;BME280;40076;52.354;4.970;2023-03-24T04:53:28;99830.28;;;10.96;100.00
54172;BME280;40076;52.354;4.970;2023-03-24T04:56:01;99841.09;;;10.96;100.00
54172;BME280;40076;52.354;4.970;2023-03-24T04:58:28;99852.25;;;10.94;100.00
54172;BME280;40076;52.354;4.970;2023-03-24T05:00:54;99838.75;;;10.94;100.00
54172;BME280;40076;52.354;4.970;2023-03-24T05:03:20;99839.88;;;10.93;100.00
54172;BME280;40076;52.354;4.970;2023-03-24T05:05:47;99849.09;;;10.92;100.00
54172;BME280;40076;52.354;4.970;2023-03-24T05:08:14;99853.72;;;10.92;100.00
54172;BME280;40076;52.354;4.970;2023-03-24T05:10:40;99858.34;;;10.91;100.00
54172;BME280;40076;52.354;4.970;2023-03-24T05:13:07;99856.41;;;10.92;100.00
54172;BME280;40076;52.354;4.970;2023-03-24T05:15:33;99863.66;;;10.88;100.00
54172;BME280;40076;52.354;4.970;2023-03-24T05:17:59;99862.06;;;10.87;100.00
54172;BME280;40076;52.354;4.970;2023-03-24T05:20:25;99861.28;;;10.86;100.00
54172;BME280;40076;52.354;4.970;2023-03-24T05:22:51;99866.25;;;10.84;100.00
54172;BME280;40076;52.354;4.970;2023-03-24T05:25:17;99864.69;;;10.83;100.00
54172;BME280;40076;52.354;4.970;2023-03-24T05:27:43;99874.72;;;10.82;100.00
54172;BME280;40076;52.354;4.970;2023-03-24T05:30:09;99866.63;;;10.82;100.00
54172;BME280;40076;52.354;4.970;2023-03-24T05:32:34;99876.63;;;10.82;100.00
54172;BME280;40076;52.354;4.970;2023-03-24T05:35:00;99883.50;;;10.79;100.00
54172;BME280;40076;52.354;4.970;2023-03-24T05:37:25;99880.34;;;10.77;100.00
54172;BME280;40076;52.354;4.970;2023-03-24T05:39:51;99884.16;;;10.76;100.00
54172;BME280;40076;52.354;4.970;2023-03-24T05:42:17;99891.50;;;10.76;100.00
54172;BME280;40076;52.354;4.970;2023-03-24T05:44:42;99891.16;;;10.77;100.00
54172;BME280;40076;52.354;4.970;2023-03-24T05:47:08;99896.56;;;10.77;100.00
54172;BME280;40076;52.354;4.970;2023-03-24T05:49:34;99893.84;;;10.77;100.00
54172;BME280;40076;52.354;4.970;2023-03-24T05:52:00;99900.38;;;10.76;100.00
54172;BME280;40076;52.354;4.970;2023-03-24T05:54:26;99897.34;;;10.78;100.00
54172;BME280;40076;52.354;4.970;2023-03-24T05:56:51;99898.94;;;10.79;100.00
54172;BME280;40076;52.354;4.970;2023-03-24T05:59:17;99901.97;;;10.77;100.00
54172;BME280;40076;52.354;4.970;2023-03-24T06:01:42;99903.53;;;10.78;100.00
54172;BME280;40076;52.354;4.970;2023-03-24T06:04:07;99920.53;;;10.79;100.00
54172;BME280;40076;52.354;4.970;2023-03-24T06:06:33;99914.34;;;10.78;100.00
54172;BME280;40076;52.354;4.970;2023-03-24T06:08:58;99914.00;;;10.80;100.00
54172;BME280;40076;52.354;4.970;2023-03-24T06:11:27;99918.97;;;10.78;100.00
54172;BME280;40076;52.354;4.970;2023-03-24T06:13:53;99928.66;;;10.79;100.00
54172;BME280;40076;52.354;4.970;2023-03-24T06:16:24;99931.00;;;10.80;100.00
54172;BME280;40076;52.354;4.970;2023-03-24T06:18:49;99932.94;;;10.80;100.00
54172;BME280;40076;52.354;4.970;2023-03-24T06:21:16;99940.69;;;10.81;100.00
54172;BME280;40076;52.354;4.970;2023-03-24T06:23:43;99941.50;;;10.82;100.00
54172;BME280;40076;52.354;4.970;2023-03-24T06:26:10;99933.38;;;10.82;100.00
54172;BME280;40076;52.354;4.970;2023-03-24T06:28:35;99948.47;;;10.83;100.00
54172;BME280;40076;52.354;4.970;2023-03-24T06:31:07;99948.47;;;10.83;100.00
54172;BME280;40076;52.354;4.970;2023-03-24T06:33:39;99953.50;;;10.84;100.00
54172;BME280;40076;52.354;4.970;2023-03-24T06:36:04;99943.06;;;10.83;100.00
54172;BME280;40076;52.354;4.970;2023-03-24T06:38:30;99943.06;;;10.83;100.00
54172;BME280;40076;52.354;4.970;2023-03-24T06:41:03;99954.31;;;10.85;100.00
54172;BME280;40076;52.354;4.970;2023-03-24T06:43:29;99952.38;;;10.86;100.00
54172;BME280;40076;52.354;4.970;2023-03-24T06:45:55;99953.97;;;10.87;100.00
54172;BME280;40076;52.354;4.970;2023-03-24T06:48:21;99958.59;;;10.86;100.00
54172;BME280;40076;52.354;4.970;2023-03-24T06:50:46;99956.22;;;10.84;100.00
54172;BME280;40076;52.354;4.970;2023-03-24T06:53:11;99961.28;;;10.86;100.00
54172;BME280;40076;52.354;4.970;2023-03-24T06:55:37;99965.09;;;10.85;100.00
54172;BME280;40076;52.354;4.970;2023-03-24T06:58:02;99968.25;;;10.87;100.00
54172;BME280;40076;52.354;4.970;2023-03-24T07:00:28;99982.56;;;10.88;100.00
54172;BME280;40076;52.354;4.970;2023-03-24T07:02:54;99977.16;;;10.88;100.00
54172;BME280;40076;52.354;4.970;2023-03-24T07:05:20;99983.69;;;10.87;100.00
54172;BME280;40076;52.354;4.970;2023-03-24T07:07:46;99983.81;;;10.90;100.00
54172;BME280;40076;52.354;4.970;2023-03-24T07:10:12;99984.16;;;10.89;100.00
54172;BME280;40076;52.354;4.970;2023-03-24T07:12:38;99984.59;;;10.91;100.00
54172;BME280;40076;52.354;4.970;2023-03-24T07:15:05;99990.00;;;10.91;100.00
54172;BME280;40076;52.354;4.970;2023-03-24T07:17:31;99991.56;;;10.92;100.00
54172;BME280;40076;52.354;4.970;2023-03-24T07:19:56;99996.16;;;10.91;100.00
54172;BME280;40076;52.354;4.970;2023-03-24T07:22:21;100007.44;;;10.93;100.00
54172;BME280;40076;52.354;4.970;2023-03-24T07:24:47;100007.44;;;10.93;100.00
54172;BME280;40076;52.354;4.970;2023-03-24T07:27:12;100010.47;;;10.92;100.00
54172;BME280;40076;52.354;4.970;2023-03-24T07:29:37;100013.97;;;10.92;100.00
54172;BME280;40076;52.354;4.970;2023-03-24T07:32:03;100021.75;;;10.94;100.00
54172;BME280;40076;52.354;4.970;2023-03-24T07:34:29;100018.72;;;10.95;100.00
54172;BME280;40076;52.354;4.970;2023-03-24T07:36:55;100029.53;;;10.95;100.00
54172;BME280;40076;52.354;4.970;2023-03-24T07:39:21;100031.09;;;10.96;100.00
54172;BME280;40076;52.354;4.970;2023-03-24T07:41:46;100032.69;;;10.97;100.00
54172;BME280;40076;52.354;4.970;2023-03-24T07:44:12;100044.72;;;11.00;100.00
54172;BME280;40076;52.354;4.970;2023-03-24T07:46:38;100039.75;;;11.02;100.00
54172;BME280;40076;52.354;4.970;2023-03-24T07:49:04;100032.09;;;11.04;100.00
54172;BME280;40076;52.354;4.970;2023-03-24T07:51:29;100042.56;;;11.05;100.00
54172;BME280;40076;52.354;4.970;2023-03-24T07:53:55;100039.19;;;11.08;100.00
54172;BME280;40076;52.354;4.970;2023-03-24T07:56:20;100042.22;;;11.07;100.00
54172;BME280;40076;52.354;4.970;2023-03-24T07:58:46;100040.75;;;11.09;100.00
54172;BME280;40076;52.354;4.970;2023-03-24T08:01:11;100037.38;;;11.12;100.00
54172;BME280;40076;52.354;4.970;2023-03-24T08:03:37;100050.53;;;11.14;100.00
54172;BME280;40076;52.354;4.970;2023-03-24T08:06:05;100049.88;;;11.17;100.00
54172;BME280;40076;52.354;4.970;2023-03-24T08:08:31;100057.97;;;11.17;100.00
54172;BME280;40076;52.354;4.970;2023-03-24T08:10:57;100063.50;;;11.20;100.00
54172;BME280;40076;52.354;4.970;2023-03-24T08:13:22;100068.13;;;11.20;100.00
54172;BME280;40076;52.354;4.970;2023-03-24T08:15:48;100062.00;;;11.23;100.00
54172;BME280;40076;52.354;4.970;2023-03-24T08:18:13;100064.84;;;11.27;100.00
54172;BME280;40076;52.354;4.970;2023-03-24T08:20:39;100054.91;;;11.31;100.00
54172;BME280;40076;52.354;4.970;2023-03-24T08:23:04;100060.44;;;11.34;100.00
54172;BME280;40076;52.354;4.970;2023-03-24T08:25:33;100077.53;;;11.38;100.00
54172;BME280;40076;52.354;4.970;2023-03-24T08:27:59;100075.28;;;11.40;100.00
54172;BME280;40076;52.354;4.970;2023-03-24T08:30:25;100080.81;;;11.44;100.00
54172;BME280;40076;52.354;4.970;2023-03-24T08:32:57;100071.19;;;11.46;100.00
54172;BME280;40076;52.354;4.970;2023-03-24T08:35:26;100082.47;;;11.48;100.00
54172;BME280;40076;52.354;4.970;2023-03-24T08:37:51;100075.94;;;11.49;100.00
54172;BME280;40076;52.354;4.970;2023-03-24T08:40:20;100083.34;;;11.52;100.00
54172;BME280;40076;52.354;4.970;2023-03-24T08:42:49;100080.66;;;11.52;100.00
54172;BME280;40076;52.354;4.970;2023-03-24T08:45:17;100078.84;;;11.56;100.00
54172;BME280;40076;52.354;4.970;2023-03-24T08:47:45;100090.53;;;11.60;100.00
54172;BME280;40076;52.354;4.970;2023-03-24T08:50:11;100085.25;;;11.64;100.00
54172;BME280;40076;52.354;4.970;2023-03-24T08:52:36;100083.88;;;11.70;100.00
54172;BME280;40076;52.354;4.970;2023-03-24T08:55:02;100090.53;;;11.73;100.00
54172;BME280;40076;52.354;4.970;2023-03-24T08:57:28;100084.44;;;11.76;100.00
54172;BME280;40076;52.354;4.970;2023-03-24T08:59:53;100098.41;;;11.78;100.00
54172;BME280;40076;52.354;4.970;2023-03-24T09:02:18;100097.75;;;11.81;100.00
54172;BME280;40076;52.354;4.970;2023-03-24T09:04:44;100104.34;;;11.83;100.00
54172;BME280;40076;52.354;4.970;2023-03-24T09:07:10;100103.22;;;11.84;100.00
54172;BME280;40076;52.354;4.970;2023-03-24T09:09:35;100105.16;;;11.84;100.00
54172;BME280;40076;52.354;4.970;2023-03-24T09:12:00;100102.03;;;11.82;100.00
54172;BME280;40076;52.354;4.970;2023-03-24T09:14:26;100099.66;;;11.80;100.00
54172;BME280;40076;52.354;4.970;2023-03-24T09:16:51;100100.00;;;11.79;100.00
54172;BME280;40076;52.354;4.970;2023-03-24T09:19:17;100108.13;;;11.79;100.00
54172;BME280;40076;52.354;4.970;2023-03-24T09:21:46;100101.56;;;11.80;100.00
54172;BME280;40076;52.354;4.970;2023-03-24T09:24:12;100110.47;;;11.80;100.00
54172;BME280;40076;52.354;4.970;2023-03-24T09:26:38;100110.56;;;11.84;100.00
54172;BME280;40076;52.354;4.970;2023-03-24T09:29:04;100121.41;;;11.84;100.00
54172;BME280;40076;52.354;4.970;2023-03-24T09:31:29;100111.81;;;11.86;100.00
54172;BME280;40076;52.354;4.970;2023-03-24T09:33:55;100121.50;;;11.87;100.00
54172;BME280;40076;52.354;4.970;2023-03-24T09:36:20;100118.00;;;11.87;100.00
54172;BME280;40076;52.354;4.970;2023-03-24T09:38:46;100123.88;;;11.89;100.00
54172;BME280;40076;52.354;4.970;2023-03-24T09:41:28;100125.44;;;11.90;100.00
54172;BME280;40076;52.354;4.970;2023-03-24T09:44:06;100129.38;;;11.92;100.00
54172;BME280;40076;52.354;4.970;2023-03-24T09:46:40;100121.03;;;11.97;100.00
54172;BME280;40076;52.354;4.970;2023-03-24T09:49:11;100116.47;;;12.02;100.00
54172;BME280;40076;52.354;4.970;2023-03-24T09:51:41;100114.31;;;12.07;100.00
54172;BME280;40076;52.354;4.970;2023-03-24T09:54:18;100121.81;;;12.14;100.00
54172;BME280;40076;52.354;4.970;2023-03-24T09:56:46;100130.06;;;12.17;100.00
54172;BME280;40076;52.354;4.970;2023-03-24T10:01:48;100137.59;;;12.24;100.00
54172;BME280;40076;52.354;4.970;2023-03-24T10:04:23;100130.34;;;12.28;100.00
54172;BME280;40076;52.354;4.970;2023-03-24T10:06:53;100136.97;;;12.30;100.00
54172;BME280;40076;52.354;4.970;2023-03-24T10:09:27;100144.78;;;12.32;100.00
54172;BME280;40076;52.354;4.970;2023-03-24T10:23:26;100158.31;;;12.32;100.00
54172;BME280;40076;52.354;4.970;2023-03-24T10:26:27;100169.84;;;12.29;100.00
54172;BME280;40076;52.354;4.970;2023-03-24T10:31:50;100161.28;;;12.27;100.00
54172;BME280;40076;52.354;4.970;2023-03-24T10:34:16;100172.53;;;12.29;100.00
54172;BME280;40076;52.354;4.970;2023-03-24T10:36:42;100169.50;;;12.30;100.00
54172;BME280;40076;52.354;4.970;2023-03-24T10:39:14;100162.94;;;12.31;100.00
54172;BME280;40076;52.354;4.970;2023-03-24T10:41:40;100173.09;;;12.34;100.00
54172;BME280;40076;52.354;4.970;2023-03-24T10:44:06;100175.88;;;12.38;100.00
54172;BME280;40076;52.354;4.970;2023-03-24T10:46:33;100164.59;;;12.36;100.00
54172;BME280;40076;52.354;4.970;2023-03-24T10:49:13;100166.56;;;12.35;100.00
54172;BME280;40076;52.354;4.970;2023-03-24T10:51:46;100155.00;;;12.38;100.00
54172;BME280;40076;52.354;4.970;2023-03-24T10:54:22;100154.31;;;12.42;100.00
54172;BME280;40076;52.354;4.970;2023-03-24T10:56:51;100148.56;;;12.43;100.00
54172;BME280;40076;52.354;4.970;2023-03-24T10:59:27;100155.28;;;12.49;100.00
54172;BME280;40076;52.354;4.970;2023-03-24T11:04:34;100153.63;;;12.60;100.00
54172;BME280;40076;52.354;4.970;2023-03-24T11:07:15;100157.66;;;12.66;100.00
54172;BME280;40076;52.354;4.970;2023-03-24T11:09:43;100169.03;;;12.72;100.00
54172;BME280;40076;52.354;4.970;2023-03-24T11:12:24;100161.78;;;12.76;100.00
54172;BME280;40076;52.354;4.970;2023-03-24T11:14:49;100157.59;;;12.79;100.00
54172;BME280;40076;52.354;4.970;2023-03-24T11:17:19;100159.59;;;12.82;100.00
54172;BME280;40076;52.354;4.970;2023-03-24T11:19:52;100165.78;;;12.82;100.00
54172;BME280;40076;52.354;4.970;2023-03-24T11:22:18;100162.41;;;12.85;100.00
54172;BME280;40076;52.354;4.970;2023-03-24T11:24:46;100167.03;;;12.85;100.00
54172;BME280;40076;52.354;4.970;2023-03-24T11:27:14;100160.13;;;12.87;100.00
54172;BME280;40076;52.354;4.970;2023-03-24T11:29:42;100150.50;;;12.90;100.00
54172;BME280;40076;52.354;4.970;2023-03-24T11:32:17;100152.97;;;12.95;100.00
54172;BME280;40076;52.354;4.970;2023-03-24T11:34:47;100152.34;;;13.01;100.00
54172;BME280;40076;52.354;4.970;2023-03-24T11:37:17;100160.19;;;13.06;100.00
54172;BME280;40076;52.354;4.970;2023-03-24T11:39:43;100161.19;;;13.14;100.00
54172;BME280;40076;52.354;4.970;2023-03-24T11:42:15;100169.88;;;13.20;100.00
54172;BME280;40076;52.354;4.970;2023-03-24T11:44:45;100166.88;;;13.25;100.00
54172;BME280;40076;52.354;4.970;2023-03-24T11:47:31;100161.16;;;13.30;100.00
54172;BME280;40076;52.354;4.970;2023-03-24T11:52:39;100172.19;;;13.37;100.00
54172;BME280;40076;52.354;4.970;2023-03-24T11:55:16;100168.78;;;13.40;100.00
54172;BME280;40076;52.354;4.970;2023-03-24T11:57:55;100172.34;;;13.44;100.00
54172;BME280;40076;52.354;4.970;2023-03-24T12:00:27;100172.78;;;13.46;100.00
54172;BME280;40076;52.354;4.970;2023-03-24T12:05:53;100162.53;;;13.55;100.00
54172;BME280;40076;52.354;4.970;2023-03-24T12:08:44;100164.09;;;13.56;100.00
54172;BME280;40076;52.354;4.970;2023-03-24T12:11:15;100170.38;;;13.60;100.00
54172;BME280;40076;52.354;4.970;2023-03-24T12:13:49;100171.34;;;13.52;100.00
54172;BME280;40076;52.354;4.970;2023-03-24T12:24:51;100160.69;;;13.43;100.00
54172;BME280;40076;52.354;4.970;2023-03-24T12:41:50;100154.41;;;13.39;100.00
54172;BME280;40076;52.354;4.970;2023-03-24T12:50:25;100158.34;;;13.42;100.00
54172;BME280;40076;52.354;4.970;2023-03-24T12:53:16;100164.19;;;13.44;100.00
54172;BME280;40076;52.354;4.970;2023-03-24T12:55:52;100153.00;;;13.45;100.00
54172;BME280;40076;52.354;4.970;2023-03-24T13:09:18;100149.94;;;13.66;100.00
54172;BME280;40076;52.354;4.970;2023-03-24T13:11:52;100141.44;;;13.68;100.00
54172;BME280;40076;52.354;4.970;2023-03-24T13:14:29;100146.25;;;13.74;100.00
54172;BME280;40076;52.354;4.970;2023-03-24T13:17:05;100149.03;;;13.78;100.00
54172;BME280;40076;52.354;4.970;2023-03-24T13:19:33;100142.13;;;13.80;100.00
54172;BME280;40076;52.354;4.970;2023-03-24T13:22:01;100143.66;;;13.81;100.00
54172;BME280;40076;52.354;4.970;2023-03-24T13:24:28;100144.47;;;13.82;100.00
54172;BME280;40076;52.354;4.970;2023-03-24T13:27:23;100139.41;;;13.80;100.00
54172;BME280;40076;52.354;4.970;2023-03-24T13:29:58;100144.06;;;13.80;100.00
54172;BME280;40076;52.354;4.970;2023-03-24T13:32:55;100135.81;;;13.76;100.00
54172;BME280;40076;52.354;4.970;2023-03-24T13:35:38;100140.41;;;13.72;100.00
54172;BME280;40076;52.354;4.970;2023-03-24T13:38:17;100137.25;;;13.70;100.00
54172;BME280;40076;52.354;4.970;2023-03-24T13:40:48;100125.25;;;13.71;100.00
54172;BME280;40076;52.354;4.970;2023-03-24T13:43:21;100133.03;;;13.73;100.00
54172;BME280;40076;52.354;4.970;2023-03-24T13:45:57;100118.75;;;13.76;100.00
54172;BME280;40076;52.354;4.970;2023-03-24T13:48:37;100134.31;;;13.79;100.00
54172;BME280;40076;52.354;4.970;2023-03-24T13:51:05;100128.47;;;13.77;100.00
54172;BME280;40076;52.354;4.970;2023-03-24T13:53:43;100126.09;;;13.75;100.00
54172;BME280;40076;52.354;4.970;2023-03-24T13:56:11;100123.03;;;13.77;100.00
54172;BME280;40076;52.354;4.970;2023-03-24T14:01:43;100132.41;;;13.79;100.00
54172;BME280;40076;52.354;4.970;2023-03-24T14:06:49;100121.81;;;13.74;100.00
54172;BME280;40076;52.354;4.970;2023-03-24T14:09:20;100132.66;;;13.74;100.00
54172;BME280;40076;52.354;4.970;2023-03-24T14:12:07;100122.94;;;13.73;100.00
54172;BME280;40076;52.354;4.970;2023-03-24T14:14:35;100121.75;;;13.71;100.00
54172;BME280;40076;52.354;4.970;2023-03-24T14:22:33;100126.31;;;13.67;100.00
54172;BME280;40076;52.354;4.970;2023-03-24T14:25:01;100120.88;;;13.67;100.00
54172;BME280;40076;52.354;4.970;2023-03-24T14:27:37;100122.88;;;13.70;100.00
54172;BME280;40076;52.354;4.970;2023-03-24T14:32:40;100111.69;;;13.71;99.67
54172;BME280;40076;52.354;4.970;2023-03-24T14:35:43;100114.38;;;13.71;99.42
54172;BME280;40076;52.354;4.970;2023-03-24T14:40:41;100112.88;;;13.74;99.85
54172;BME280;40076;52.354;4.970;2023-03-24T14:43:27;100100.53;;;13.76;100.00
54172;BME280;40076;52.354;4.970;2023-03-24T14:45:57;100093.94;;;13.77;99.38
54172;BME280;40076;52.354;4.970;2023-03-24T14:48:28;100105.94;;;13.76;99.16